createdAt,value
2018-08-10T00:00:53.680Z,1013.68
2018-08-10T00:02:02.828Z,1013.65
2018-08-10T00:03:12.510Z,1013.69
2018-08-10T00:04:22.171Z,1013.71
2018-08-10T00:05:31.085Z,1013.68
2018-08-10T00:06:40.751Z,1013.65
2018-08-10T00:07:50.463Z,1013.72
2018-08-10T00:08:59.381Z,1013.71
2018-08-10T00:10:08.512Z,1013.71
2018-08-10T00:11:17.679Z,1013.71
2018-08-10T00:12:26.841Z,1013.79
2018-08-10T00:13:36.497Z,1013.79
2018-08-10T00:14:45.385Z,1013.78
2018-08-10T00:15:54.559Z,1013.79
2018-08-10T00:17:03.974Z,1013.85
2018-08-10T00:18:13.396Z,1013.83
2018-08-10T00:19:23.320Z,1013.87
2018-08-10T00:20:33.010Z,1013.91
2018-08-10T00:21:42.171Z,1013.94
2018-08-10T00:22:51.328Z,1013.96
2018-08-10T00:24:01.017Z,1013.98
2018-08-10T00:25:10.432Z,1014.05
2018-08-10T00:26:20.103Z,1014.06
2018-08-10T00:27:29.501Z,1014.05
2018-08-10T00:28:38.692Z,1014.1
2018-08-10T00:29:48.100Z,1014.13
2018-08-10T00:30:57.249Z,1014.15
2018-08-10T00:32:06.955Z,1014.19
2018-08-10T00:33:16.104Z,1014.18
2018-08-10T00:34:25.814Z,1014.14
2018-08-10T00:35:35.206Z,1014.14
2018-08-10T00:36:44.113Z,1014.15
2018-08-10T00:37:53.794Z,1014.18
2018-08-10T00:39:03.204Z,1014.27
2018-08-10T00:40:12.345Z,1014.32
2018-08-10T00:41:22.024Z,1014.32
2018-08-10T00:42:31.452Z,1014.31
2018-08-10T00:43:40.614Z,1014.39
2018-08-10T00:44:50.032Z,1014.36
2018-08-10T00:45:59.227Z,1014.39
2018-08-10T00:47:08.631Z,1014.46
2018-08-10T00:48:17.519Z,1014.4
2018-08-10T00:49:26.415Z,1014.42
2018-08-10T00:50:35.859Z,1014.44
2018-08-10T00:51:44.762Z,1014.49
2018-08-10T00:52:54.678Z,1014.53
2018-08-10T00:54:04.348Z,1014.51
2018-08-10T00:55:14.289Z,1014.54
2018-08-10T00:56:23.466Z,1014.59
2018-08-10T00:57:32.359Z,1014.62
2018-08-10T00:58:41.551Z,1014.68
2018-08-10T00:59:50.973Z,1014.7
2018-08-10T01:00:59.874Z,1014.71
2018-08-10T01:02:09.306Z,1014.71
2018-08-10T01:03:18.471Z,1014.72
2018-08-10T01:04:27.657Z,1014.75
2018-08-10T01:05:36.578Z,1014.81
2018-08-10T01:06:45.992Z,1014.84
2018-08-10T01:07:55.132Z,1014.86
2018-08-10T01:09:04.548Z,1014.91
2018-08-10T01:10:13.971Z,1014.93
2018-08-10T01:11:23.114Z,1014.93
2018-08-10T01:12:32.771Z,1014.99
2018-08-10T01:13:41.955Z,1015
2018-08-10T01:14:51.649Z,1015
2018-08-10T01:16:01.072Z,1015.02
2018-08-10T01:17:10.756Z,1015
2018-08-10T01:18:19.660Z,1015.04
2018-08-10T01:19:29.739Z,1015.04
2018-08-10T01:20:39.215Z,1015.1
2018-08-10T01:21:48.641Z,1015.09
2018-08-10T01:22:58.059Z,1015.1
2018-08-10T01:24:07.746Z,1015.13
2018-08-10T01:25:17.163Z,1015.16
2018-08-10T01:26:26.315Z,1015.2
2018-08-10T01:27:35.739Z,1015.21
2018-08-10T01:28:45.236Z,1015.27
2018-08-10T01:29:55.518Z,1015.28
2018-08-10T01:31:04.942Z,1015.29
2018-08-10T01:32:14.342Z,1015.3
2018-08-10T01:33:23.512Z,1015.34
2018-08-10T01:34:32.948Z,1015.37
2018-08-10T01:35:42.112Z,1015.32
2018-08-10T01:36:51.279Z,1015.31
2018-08-10T01:38:01.210Z,1015.33
2018-08-10T01:39:10.651Z,1015.34
2018-08-10T01:40:19.806Z,1015.34
2018-08-10T01:41:29.534Z,1015.34
2018-08-10T01:42:38.961Z,1015.38
2018-08-10T01:43:48.635Z,1015.37
2018-08-10T01:44:58.286Z,1015.38
2018-08-10T01:46:07.685Z,1015.36
2018-08-10T01:47:17.363Z,1015.38
2018-08-10T01:48:26.520Z,1015.4
2018-08-10T01:49:35.669Z,1015.45
2018-08-10T01:50:45.340Z,1015.41
2018-08-10T01:51:55.299Z,1015.43
2018-08-10T01:53:04.191Z,1015.37
2018-08-10T01:54:13.603Z,1015.37
2018-08-10T01:55:23.017Z,1015.37
2018-08-10T01:56:32.169Z,1015.38
2018-08-10T01:57:41.063Z,1015.41
2018-08-10T01:58:50.561Z,1015.37
2018-08-10T01:59:59.984Z,1015.36
2018-08-10T02:01:09.420Z,1015.36
2018-08-10T02:02:18.337Z,1015.34
2018-08-10T02:03:27.482Z,1015.32
2018-08-10T02:04:36.889Z,1015.36
2018-08-10T02:05:46.549Z,1015.36
2018-08-10T02:06:55.440Z,1015.41
2018-08-10T02:08:04.602Z,1015.39
2018-08-10T02:09:13.325Z,1015.41
2018-08-10T02:10:22.735Z,1015.43
2018-08-10T02:11:32.146Z,1015.44
2018-08-10T02:12:41.805Z,1015.45
2018-08-10T02:13:50.953Z,1015.48
2018-08-10T02:15:00.393Z,1015.43
2018-08-10T02:16:09.822Z,1015.45
2018-08-10T02:17:19.507Z,1015.42
2018-08-10T02:18:28.950Z,1015.49
2018-08-10T02:19:38.380Z,1015.45
2018-08-10T02:20:47.600Z,1015.47
2018-08-10T02:21:57.250Z,1015.44
2018-08-10T02:23:06.420Z,1015.44
2018-08-10T02:24:15.567Z,1015.47
2018-08-10T02:25:24.996Z,1015.42
2018-08-10T02:26:34.162Z,1015.43
2018-08-10T02:27:43.586Z,1015.45
2018-08-10T02:28:53.279Z,1015.46
2018-08-10T02:30:03.200Z,1015.47
2018-08-10T02:31:12.368Z,1015.47
2018-08-10T02:32:22.305Z,1015.5
2018-08-10T02:33:32.240Z,1015.5
2018-08-10T02:34:42.183Z,1015.51
2018-08-10T02:35:51.354Z,1015.52
2018-08-10T02:37:00.772Z,1015.56
2018-08-10T02:38:10.733Z,1015.53
2018-08-10T02:39:20.406Z,1015.54
2018-08-10T02:40:29.554Z,1015.58
2018-08-10T02:41:39.767Z,1015.62
2018-08-10T02:42:49.455Z,1015.62
2018-08-10T02:43:58.859Z,1015.65
2018-08-10T02:45:08.355Z,1015.66
2018-08-10T02:46:18.325Z,1015.64
2018-08-10T02:47:27.764Z,1015.59
2018-08-10T02:48:37.441Z,1015.64
2018-08-10T02:49:46.869Z,1015.64
2018-08-10T02:50:56.543Z,1015.7
2018-08-10T02:52:05.976Z,1015.73
2018-08-10T02:53:15.642Z,1015.76
2018-08-10T02:54:25.065Z,1015.75
2018-08-10T02:55:34.823Z,1015.73
2018-08-10T02:56:44.799Z,1015.78
2018-08-10T02:57:54.215Z,1015.8
2018-08-10T02:59:03.872Z,1015.8
2018-08-10T03:00:13.285Z,1015.78
2018-08-10T03:01:22.752Z,1015.8
2018-08-10T03:02:31.643Z,1015.76
2018-08-10T03:03:41.331Z,1015.8
2018-08-10T03:04:51.018Z,1015.81
2018-08-10T03:06:00.960Z,1015.83
2018-08-10T03:07:10.383Z,1015.82
2018-08-10T03:08:20.316Z,1015.84
2018-08-10T03:09:29.725Z,1015.86
2018-08-10T03:10:39.433Z,1015.83
2018-08-10T03:11:48.861Z,1015.85
2018-08-10T03:12:58.540Z,1015.84
2018-08-10T03:14:08.473Z,1015.83
2018-08-10T03:15:17.917Z,1015.84
2018-08-10T03:16:27.361Z,1015.83
2018-08-10T03:17:36.763Z,1015.84
2018-08-10T03:18:46.696Z,1015.83
2018-08-10T03:19:55.878Z,1015.85
2018-08-10T03:21:05.303Z,1015.88
2018-08-10T03:22:14.614Z,1015.88
2018-08-10T03:23:23.651Z,1015.89
2018-08-10T03:24:33.077Z,1015.87
2018-08-10T03:25:42.509Z,1015.88
2018-08-10T03:26:52.177Z,1015.87
2018-08-10T03:28:02.159Z,1015.9
2018-08-10T03:29:11.555Z,1015.93
2018-08-10T03:30:21.224Z,1015.9
2018-08-10T03:31:30.668Z,1015.94
2018-08-10T03:32:40.589Z,1015.93
2018-08-10T03:33:49.746Z,1015.98
2018-08-10T03:34:59.408Z,1016.01
2018-08-10T03:36:08.826Z,1016.02
2018-08-10T03:37:17.728Z,1016.03
2018-08-10T03:38:26.441Z,1016.06
2018-08-10T03:39:35.844Z,1016.06
2018-08-10T03:40:45.510Z,1016.1
2018-08-10T03:41:55.192Z,1016.11
2018-08-10T03:43:04.617Z,1016.13
2018-08-10T03:44:14.064Z,1016.14
2018-08-10T03:45:24.043Z,1016.15
2018-08-10T03:46:33.447Z,1016.19
2018-08-10T03:47:42.600Z,1016.15
2018-08-10T03:48:51.774Z,1016.17
2018-08-10T03:50:00.681Z,1016.17
2018-08-10T03:51:10.399Z,1016.24
2018-08-10T03:52:19.545Z,1016.22
2018-08-10T03:53:28.688Z,1016.21
2018-08-10T03:54:37.602Z,1016.26
2018-08-10T03:55:47.524Z,1016.27
2018-08-10T03:56:56.951Z,1016.21
2018-08-10T03:58:06.363Z,1016.26
2018-08-10T03:59:15.522Z,1016.27
2018-08-10T04:00:25.266Z,1016.28
2018-08-10T04:01:34.962Z,1016.29
2018-08-10T04:02:44.658Z,1016.27
2018-08-10T04:03:54.078Z,1016.26
2018-08-10T04:05:03.567Z,1016.3
2018-08-10T04:06:12.726Z,1016.26
2018-08-10T04:07:22.510Z,1016.28
2018-08-10T04:08:31.975Z,1016.28
2018-08-10T04:09:41.136Z,1016.33
2018-08-10T04:10:50.794Z,1016.34
2018-08-10T04:12:00.458Z,1016.37
2018-08-10T04:13:09.850Z,1016.41
2018-08-10T04:14:19.285Z,1016.44
2018-08-10T04:15:28.433Z,1016.45
2018-08-10T04:16:37.608Z,1016.47
2018-08-10T04:17:47.280Z,1016.5
2018-08-10T04:18:56.712Z,1016.49
2018-08-10T04:20:06.373Z,1016.48
2018-08-10T04:21:15.746Z,1016.48
2018-08-10T04:22:25.014Z,1016.51
2018-08-10T04:23:34.446Z,1016.53
2018-08-10T04:24:43.877Z,1016.5
2018-08-10T04:25:53.781Z,1016.48
2018-08-10T04:27:03.194Z,1016.5
2018-08-10T04:28:13.109Z,1016.51
2018-08-10T04:29:22.537Z,1016.52
2018-08-10T04:30:32.435Z,1016.51
2018-08-10T04:31:41.833Z,1016.54
2018-08-10T04:32:51.388Z,1016.51
2018-08-10T04:34:00.806Z,1016.51
2018-08-10T04:35:09.964Z,1016.52
2018-08-10T04:36:19.129Z,1016.55
2018-08-10T04:37:28.793Z,1016.58
2018-08-10T04:38:38.461Z,1016.55
2018-08-10T04:39:47.779Z,1016.57
2018-08-10T04:40:57.702Z,1016.57
2018-08-10T04:42:07.426Z,1016.55
2018-08-10T04:43:16.842Z,1016.57
2018-08-10T04:44:26.573Z,1016.57
2018-08-10T04:45:35.983Z,1016.61
2018-08-10T04:46:45.433Z,1016.58
2018-08-10T04:47:54.864Z,1016.57
2018-08-10T04:49:04.425Z,1016.6
2018-08-10T04:50:13.830Z,1016.58
2018-08-10T04:51:23.265Z,1016.58
2018-08-10T04:52:32.935Z,1016.63
2018-08-10T04:53:42.612Z,1016.63
2018-08-10T04:54:52.022Z,1016.65
2018-08-10T04:56:01.568Z,1016.68
2018-08-10T04:57:10.732Z,1016.66
2018-08-10T04:58:20.408Z,1016.68
2018-08-10T04:59:29.573Z,1016.69
2018-08-10T05:00:38.743Z,1016.68
2018-08-10T05:01:48.154Z,1016.66
2018-08-10T05:02:57.329Z,1016.63
2018-08-10T05:04:07.024Z,1016.71
2018-08-10T05:05:15.928Z,1016.7
2018-08-10T05:06:25.596Z,1016.62
2018-08-10T05:07:34.508Z,1016.68
2018-08-10T05:08:43.659Z,1016.72
2018-08-10T05:09:53.325Z,1016.73
2018-08-10T05:11:03.189Z,1016.74
2018-08-10T05:12:12.602Z,1016.75
2018-08-10T05:13:21.509Z,1016.72
2018-08-10T05:14:30.950Z,1016.72
2018-08-10T05:15:39.933Z,1016.76
2018-08-10T05:16:49.622Z,1016.76
2018-08-10T05:17:58.794Z,1016.78
2018-08-10T05:19:08.722Z,1016.76
2018-08-10T05:20:17.633Z,1016.8
2018-08-10T05:21:27.295Z,1016.82
2018-08-10T05:22:36.698Z,1016.82
2018-08-10T05:23:45.596Z,1016.87
2018-08-10T05:24:54.503Z,1016.88
2018-08-10T05:26:03.926Z,1016.9
2018-08-10T05:27:13.358Z,1016.92
2018-08-10T05:28:23.029Z,1016.94
2018-08-10T05:29:32.191Z,1016.98
2018-08-10T05:30:41.614Z,1016.98
2018-08-10T05:31:50.509Z,1017.03
2018-08-10T05:32:59.671Z,1017
2018-08-10T05:34:09.090Z,1017.02
2018-08-10T05:35:18.502Z,1017.01
2018-08-10T05:36:28.176Z,1017.01
2018-08-10T05:37:36.817Z,1017.05
2018-08-10T05:38:46.250Z,1017
2018-08-10T05:39:55.939Z,1017.02
2018-08-10T05:41:05.114Z,1017.03
2018-08-10T05:42:14.021Z,1017.04
2018-08-10T05:43:23.453Z,1017.07
2018-08-10T05:44:32.875Z,1017.08
2018-08-10T05:45:42.285Z,1017.06
2018-08-10T05:46:52.053Z,1017.09
2018-08-10T05:48:02.359Z,1017.14
2018-08-10T05:49:12.513Z,1017.15
2018-08-10T05:50:22.190Z,1017.16
2018-08-10T05:51:31.110Z,1017.14
2018-08-10T05:52:40.878Z,1017.15
2018-08-10T05:53:49.936Z,1017.17
2018-08-10T05:54:59.350Z,1017.14
2018-08-10T05:56:08.778Z,1017.14
2018-08-10T05:57:18.711Z,1017.14
2018-08-10T05:58:28.206Z,1017.15
2018-08-10T05:59:37.875Z,1017.13
2018-08-10T06:00:47.591Z,1017.12
2018-08-10T06:01:57.518Z,1017.17
2018-08-10T06:03:06.165Z,1017.15
2018-08-10T06:04:16.251Z,1017.17
2018-08-10T06:05:25.434Z,1017.18
2018-08-10T06:06:35.117Z,1017.19
2018-08-10T06:07:44.524Z,1017.21
2018-08-10T06:08:53.684Z,1017.21
2018-08-10T06:10:03.353Z,1017.21
2018-08-10T06:11:12.765Z,1017.25
2018-08-10T06:12:22.614Z,1017.27
2018-08-10T06:13:32.023Z,1017.28
2018-08-10T06:14:40.931Z,1017.27
2018-08-10T06:15:50.083Z,1017.28
2018-08-10T06:16:59.481Z,1017.29
2018-08-10T06:18:08.636Z,1017.28
2018-08-10T06:19:18.098Z,1017.28
2018-08-10T06:20:27.707Z,1017.31
2018-08-10T06:21:37.398Z,1017.29
2018-08-10T06:22:46.751Z,1017.27
2018-08-10T06:23:56.504Z,1017.3
2018-08-10T06:25:06.011Z,1017.34
2018-08-10T06:26:15.639Z,1017.31
2018-08-10T06:27:24.809Z,1017.35
2018-08-10T06:28:33.956Z,1017.37
2018-08-10T06:29:43.647Z,1017.38
2018-08-10T06:30:52.835Z,1017.42
2018-08-10T06:32:02.011Z,1017.39
2018-08-10T06:33:11.950Z,1017.42
2018-08-10T06:34:21.097Z,1017.41
2018-08-10T06:35:30.784Z,1017.44
2018-08-10T06:36:39.675Z,1017.44
2018-08-10T06:37:48.838Z,1017.45
2018-08-10T06:38:58.114Z,1017.45
2018-08-10T06:40:07.558Z,1017.43
2018-08-10T06:41:17.240Z,1017.47
2018-08-10T06:42:26.664Z,1017.43
2018-08-10T06:43:35.551Z,1017.44
2018-08-10T06:44:44.729Z,1017.46
2018-08-10T06:45:54.327Z,1017.47
2018-08-10T06:47:03.756Z,1017.47
2018-08-10T06:48:13.433Z,1017.45
2018-08-10T06:49:23.043Z,1017.5
2018-08-10T06:50:32.495Z,1017.47
2018-08-10T06:51:41.718Z,1017.43
2018-08-10T06:52:51.140Z,1017.48
2018-08-10T06:54:00.298Z,1017.46
2018-08-10T06:55:08.951Z,1017.46
2018-08-10T06:56:18.153Z,1017.49
2018-08-10T06:57:27.575Z,1017.45
2018-08-10T06:58:36.980Z,1017.46
2018-08-10T06:59:46.393Z,1017.46
2018-08-10T07:00:55.590Z,1017.48
2018-08-10T07:02:05.869Z,1017.47
2018-08-10T07:03:14.797Z,1017.48
2018-08-10T07:04:24.732Z,1017.5
2018-08-10T07:05:33.931Z,1017.5
2018-08-10T07:06:43.673Z,1017.51
2018-08-10T07:07:52.407Z,1017.6
2018-08-10T07:09:02.107Z,1017.58
2018-08-10T07:10:11.820Z,1017.55
2018-08-10T07:11:20.996Z,1017.55
2018-08-10T07:12:30.667Z,1017.54
2018-08-10T07:13:40.427Z,1017.54
2018-08-10T07:14:50.135Z,1017.57
2018-08-10T07:15:59.576Z,1017.5
2018-08-10T07:17:09.254Z,1017.56
2018-08-10T07:18:18.908Z,1017.56
2018-08-10T07:19:28.604Z,1017.54
2018-08-10T07:20:38.041Z,1017.59
2018-08-10T07:21:46.678Z,1017.62
2018-08-10T07:22:55.848Z,1017.62
2018-08-10T07:24:05.511Z,1017.58
2018-08-10T07:25:14.423Z,1017.55
2018-08-10T07:26:23.837Z,1017.62
2018-08-10T07:27:33.029Z,1017.58
2018-08-10T07:28:41.666Z,1017.63
2018-08-10T07:29:51.093Z,1017.59
2018-08-10T07:31:00.540Z,1017.63
2018-08-10T07:32:10.210Z,1017.63
2018-08-10T07:33:19.174Z,1017.61
2018-08-10T07:34:28.323Z,1017.69
2018-08-10T07:35:38.311Z,1017.64
2018-08-10T07:36:47.726Z,1017.68
2018-08-10T07:37:56.879Z,1017.65
2018-08-10T07:39:06.559Z,1017.63
2018-08-10T07:40:15.455Z,1017.65
2018-08-10T07:41:24.889Z,1017.61
2018-08-10T07:42:34.041Z,1017.66
2018-08-10T07:43:43.470Z,1017.64
2018-08-10T07:44:53.150Z,1017.66
2018-08-10T07:46:02.567Z,1017.61
2018-08-10T07:47:11.741Z,1017.74
2018-08-10T07:48:21.170Z,1017.71
2018-08-10T07:49:30.570Z,1017.73
2018-08-10T07:50:39.719Z,1017.67
2018-08-10T07:51:48.869Z,1017.7
2018-08-10T07:52:58.619Z,1017.75
2018-08-10T07:54:07.776Z,1017.77
2018-08-10T07:55:17.438Z,1017.79
2018-08-10T07:56:27.095Z,1017.83
2018-08-10T07:57:36.772Z,1017.79
2018-08-10T07:58:46.175Z,1017.73
2018-08-10T07:59:55.075Z,1017.75
2018-08-10T08:01:04.487Z,1017.8
2018-08-10T08:02:14.180Z,1017.78
2018-08-10T08:03:23.989Z,1017.79
2018-08-10T08:04:33.721Z,1017.83
2018-08-10T08:05:43.125Z,1017.86
2018-08-10T08:06:52.036Z,1017.83
2018-08-10T08:08:01.558Z,1017.85
2018-08-10T08:09:10.458Z,1017.89
2018-08-10T08:10:19.444Z,1017.89
2018-08-10T08:11:29.594Z,1017.97
2018-08-10T08:12:39.007Z,1017.91
2018-08-10T08:13:48.510Z,1017.86
2018-08-10T08:14:58.151Z,1017.93
2018-08-10T08:16:07.576Z,1017.89
2018-08-10T08:17:16.736Z,1017.94
2018-08-10T08:18:26.137Z,1017.94
2018-08-10T08:19:35.187Z,1017.92
2018-08-10T08:20:45.598Z,1017.93
2018-08-10T08:21:55.002Z,1017.92
2018-08-10T08:23:04.678Z,1017.94
2018-08-10T08:24:14.377Z,1017.94
2018-08-10T08:25:24.041Z,1017.9
2018-08-10T08:26:32.927Z,1017.91
2018-08-10T08:27:41.569Z,1017.79
2018-08-10T08:28:50.232Z,1017.89
2018-08-10T08:29:59.417Z,1017.94
2018-08-10T08:31:08.841Z,1017.94
2018-08-10T08:32:17.739Z,1017.93
2018-08-10T08:33:26.895Z,1017.92
2018-08-10T08:34:35.846Z,1017.91
2018-08-10T08:35:46.376Z,1017.97
2018-08-10T08:36:55.813Z,1017.94
2018-08-10T08:38:06.192Z,1017.92
2018-08-10T08:39:15.743Z,1017.9
2018-08-10T08:40:24.909Z,1017.93
2018-08-10T08:41:34.304Z,1017.92
2018-08-10T08:42:43.964Z,1017.92
2018-08-10T08:43:53.138Z,1017.88
2018-08-10T08:45:02.882Z,1017.91
2018-08-10T08:46:12.286Z,1017.85
2018-08-10T08:47:23.620Z,1017.92
2018-08-10T08:48:32.782Z,1017.92
2018-08-10T08:49:42.204Z,1017.89
2018-08-10T08:50:51.102Z,1017.98
2018-08-10T08:52:01.060Z,1017.94
2018-08-10T08:53:10.469Z,1017.96
2018-08-10T08:54:19.383Z,1017.97
2018-08-10T08:55:29.074Z,1017.91
2018-08-10T08:56:37.989Z,1017.95
2018-08-10T08:57:47.168Z,1017.92
2018-08-10T08:58:56.375Z,1018.02
2018-08-10T09:00:05.783Z,1017.97
2018-08-10T09:01:15.198Z,1017.96
2018-08-10T09:02:24.603Z,1017.96
2018-08-10T09:03:33.756Z,1017.99
2018-08-10T09:04:43.189Z,1017.96
2018-08-10T09:05:52.847Z,1018.01
2018-08-10T09:07:02.784Z,1017.96
2018-08-10T09:08:12.097Z,1017.99
2018-08-10T09:09:21.516Z,1017.98
2018-08-10T09:10:30.427Z,1017.96
2018-08-10T09:11:39.846Z,1017.94
2018-08-10T09:12:49.260Z,1017.97
2018-08-10T09:13:58.682Z,1017.98
2018-08-10T09:15:07.355Z,1017.92
2018-08-10T09:16:16.766Z,1017.98
2018-08-10T09:17:26.482Z,1017.93
2018-08-10T09:18:37.095Z,1017.9
2018-08-10T09:19:45.996Z,1017.91
2018-08-10T09:20:55.146Z,1017.93
2018-08-10T09:22:04.545Z,1017.91
2018-08-10T09:23:14.248Z,1017.94
2018-08-10T09:24:23.486Z,1017.93
2018-08-10T09:25:33.365Z,1017.95
2018-08-10T09:26:42.783Z,1017.97
2018-08-10T09:27:51.939Z,1018.06
2018-08-10T09:29:01.093Z,1018.05
2018-08-10T09:30:10.770Z,1018
2018-08-10T09:31:20.479Z,1018.07
2018-08-10T09:32:29.884Z,1017.96
2018-08-10T09:33:39.312Z,1018.02
2018-08-10T09:34:48.255Z,1018.04
2018-08-10T09:35:57.447Z,1018.03
2018-08-10T09:37:06.905Z,1018.02
2018-08-10T09:38:16.314Z,1017.98
2018-08-10T09:39:25.511Z,1018.02
2018-08-10T09:40:34.954Z,1017.97
2018-08-10T09:41:44.626Z,1017.99
2018-08-10T09:42:54.044Z,1018.02
2018-08-10T09:44:04.150Z,1017.96
2018-08-10T09:45:13.927Z,1017.98
2018-08-10T09:46:23.561Z,1018.01
2018-08-10T09:47:33.016Z,1017.97
2018-08-10T09:48:42.428Z,1017.97
2018-08-10T09:49:51.841Z,1018.02
2018-08-10T09:51:00.748Z,1017.99
2018-08-10T09:52:10.417Z,1017.96
2018-08-10T09:53:20.109Z,1017.92
2018-08-10T09:54:29.262Z,1017.94
2018-08-10T09:55:38.664Z,1017.94
2018-08-10T09:56:47.824Z,1017.97
2018-08-10T09:57:57.251Z,1018.01
2018-08-10T09:59:06.210Z,1018.04
2018-08-10T10:00:15.370Z,1018.07
2018-08-10T10:01:24.853Z,1018.04
2018-08-10T10:02:34.536Z,1018.03
2018-08-10T10:03:43.986Z,1017.99
2018-08-10T10:04:53.136Z,1018.03
2018-08-10T10:06:02.802Z,1017.99
2018-08-10T10:07:12.238Z,1017.98
2018-08-10T10:08:21.121Z,1018
2018-08-10T10:09:30.577Z,1018.02
2018-08-10T10:10:40.248Z,1017.99
2018-08-10T10:11:49.669Z,1018.07
2018-08-10T10:12:59.620Z,1018.04
2018-08-10T10:14:09.026Z,1018.02
2018-08-10T10:15:18.437Z,1017.98
2018-08-10T10:16:27.130Z,1018.03
2018-08-10T10:17:36.291Z,1018.06
2018-08-10T10:18:45.516Z,1018
2018-08-10T10:19:54.691Z,1018.03
2018-08-10T10:21:03.625Z,1018.06
2018-08-10T10:22:13.718Z,1018.11
2018-08-10T10:23:22.622Z,1018.12
2018-08-10T10:24:31.526Z,1018.08
2018-08-10T10:25:40.933Z,1018.02
2018-08-10T10:26:50.133Z,1018
2018-08-10T10:27:59.551Z,1018
2018-08-10T10:29:08.969Z,1018
2018-08-10T10:30:18.393Z,1017.99
2018-08-10T10:31:28.052Z,1017.97
2018-08-10T10:32:37.484Z,1017.94
2018-08-10T10:33:46.865Z,1017.91
2018-08-10T10:34:55.755Z,1017.91
2018-08-10T10:36:04.928Z,1017.96
2018-08-10T10:37:14.342Z,1017.92
2018-08-10T10:38:23.759Z,1017.95
2018-08-10T10:39:33.204Z,1017.9
2018-08-10T10:40:42.879Z,1017.95
2018-08-10T10:41:52.045Z,1017.92
2018-08-10T10:43:01.462Z,1017.84
2018-08-10T10:44:11.403Z,1017.86
2018-08-10T10:45:20.308Z,1017.81
2018-08-10T10:46:29.473Z,1017.8
2018-08-10T10:47:39.436Z,1017.88
2018-08-10T10:48:48.850Z,1017.85
2018-08-10T10:49:58.266Z,1017.85
2018-08-10T10:51:07.436Z,1017.89
2018-08-10T10:52:16.582Z,1017.93
2018-08-10T10:53:25.781Z,1017.85
2018-08-10T10:54:35.182Z,1017.89
2018-08-10T10:55:44.395Z,1017.84
2018-08-10T10:56:54.127Z,1017.79
2018-08-10T10:58:04.073Z,1017.75
2018-08-10T10:59:13.485Z,1017.68
2018-08-10T11:00:22.888Z,1017.72
2018-08-10T11:01:32.333Z,1017.67
2018-08-10T11:02:41.017Z,1017.74
2018-08-10T11:03:50.699Z,1017.77
2018-08-10T11:04:59.872Z,1017.76
2018-08-10T11:06:09.539Z,1017.78
2018-08-10T11:07:19.438Z,1017.74
2018-08-10T11:08:28.668Z,1017.72
2018-08-10T11:09:38.096Z,1017.76
2018-08-10T11:10:47.763Z,1017.74
2018-08-10T11:11:57.184Z,1017.76
2018-08-10T11:13:06.609Z,1017.71
2018-08-10T11:14:15.259Z,1017.74
2018-08-10T11:15:24.689Z,1017.71
2018-08-10T11:16:34.380Z,1017.77
2018-08-10T11:17:44.070Z,1017.71
2018-08-10T11:18:54.001Z,1017.7
2018-08-10T11:20:03.449Z,1017.72
2018-08-10T11:21:12.868Z,1017.67
2018-08-10T11:22:22.287Z,1017.72
2018-08-10T11:23:31.941Z,1017.65
2018-08-10T11:24:41.095Z,1017.67
2018-08-10T11:25:50.924Z,1017.6
2018-08-10T11:27:01.488Z,1017.59
2018-08-10T11:28:10.647Z,1017.65
2018-08-10T11:29:20.056Z,1017.67
2018-08-10T11:30:29.508Z,1017.7
2018-08-10T11:31:38.421Z,1017.67
2018-08-10T11:32:48.091Z,1017.71
2018-08-10T11:33:57.002Z,1017.69
2018-08-10T11:35:06.419Z,1017.71
2018-08-10T11:36:15.855Z,1017.71
2018-08-10T11:37:25.019Z,1017.7
2018-08-10T11:38:34.443Z,1017.7
2018-08-10T11:39:43.084Z,1017.66
2018-08-10T11:40:52.235Z,1017.6
2018-08-10T11:42:01.895Z,1017.6
2018-08-10T11:43:11.310Z,1017.6
2018-08-10T11:44:21.251Z,1017.63
2018-08-10T11:45:30.150Z,1017.63
2018-08-10T11:46:40.062Z,1017.65
2018-08-10T11:47:48.721Z,1017.66
2018-08-10T11:48:57.869Z,1017.61
2018-08-10T11:50:07.623Z,1017.6
2018-08-10T11:51:17.469Z,1017.65
2018-08-10T11:52:26.878Z,1017.66
2018-08-10T11:53:36.874Z,1017.64
2018-08-10T11:54:46.543Z,1017.57
2018-08-10T11:55:55.968Z,1017.57
2018-08-10T11:57:05.385Z,1017.47
2018-08-10T11:58:14.334Z,1017.57
2018-08-10T11:59:23.768Z,1017.53
2018-08-10T12:00:33.196Z,1017.56
2018-08-10T12:01:42.623Z,1017.51
2018-08-10T12:02:52.590Z,1017.56
2018-08-10T12:04:02.285Z,1017.54
2018-08-10T12:05:12.377Z,1017.5
2018-08-10T12:06:21.398Z,1017.55
2018-08-10T12:07:31.167Z,1017.53
2018-08-10T12:08:40.575Z,1017.6
2018-08-10T12:09:49.462Z,1017.62
2018-08-10T12:10:58.871Z,1017.53
2018-08-10T12:12:08.597Z,1017.56
2018-08-10T12:13:17.749Z,1017.55
2018-08-10T12:14:27.174Z,1017.53
2018-08-10T12:15:36.833Z,1017.55
2018-08-10T12:16:45.733Z,1017.55
2018-08-10T12:17:55.138Z,1017.59
2018-08-10T12:19:04.348Z,1017.61
2018-08-10T12:20:14.657Z,1017.55
2018-08-10T12:21:24.585Z,1017.49
2018-08-10T12:22:34.005Z,1017.46
2018-08-10T12:23:43.722Z,1017.44
2018-08-10T12:24:52.903Z,1017.46
2018-08-10T12:26:02.328Z,1017.48
2018-08-10T12:27:11.983Z,1017.49
2018-08-10T12:28:21.404Z,1017.45
2018-08-10T12:29:30.298Z,1017.45
2018-08-10T12:30:39.974Z,1017.41
2018-08-10T12:31:49.913Z,1017.42
2018-08-10T12:32:59.069Z,1017.46
2018-08-10T12:34:07.962Z,1017.54
2018-08-10T12:35:17.187Z,1017.5
2018-08-10T12:36:26.334Z,1017.48
2018-08-10T12:37:35.493Z,1017.44
2018-08-10T12:38:44.642Z,1017.47
2018-08-10T12:39:54.323Z,1017.48
2018-08-10T12:41:03.733Z,1017.41
2018-08-10T12:42:12.623Z,1017.43
2018-08-10T12:43:21.512Z,1017.39
2018-08-10T12:44:30.666Z,1017.34
2018-08-10T12:45:40.349Z,1017.31
2018-08-10T12:46:49.252Z,1017.32
2018-08-10T12:47:58.397Z,1017.3
2018-08-10T12:49:07.560Z,1017.35
2018-08-10T12:50:17.296Z,1017.39
2018-08-10T12:51:26.668Z,1017.37
2018-08-10T12:52:35.582Z,1017.34
2018-08-10T12:53:44.466Z,1017.38
2018-08-10T12:54:53.889Z,1017.47
2018-08-10T12:56:03.317Z,1017.37
2018-08-10T12:57:12.325Z,1017.44
2018-08-10T12:58:21.791Z,1017.42
2018-08-10T12:59:31.013Z,1017.41
2018-08-10T13:00:39.907Z,1017.41
2018-08-10T13:01:49.071Z,1017.42
2018-08-10T13:02:58.795Z,1017.41
2018-08-10T13:04:08.749Z,1017.43
2018-08-10T13:05:17.949Z,1017.41
2018-08-10T13:06:27.117Z,1017.43
2018-08-10T13:07:36.298Z,1017.29
2018-08-10T13:08:45.469Z,1017.36
2018-08-10T13:09:55.419Z,1017.37
2018-08-10T13:11:05.386Z,1017.4
2018-08-10T13:12:14.810Z,1017.28
2018-08-10T13:13:23.968Z,1017.31
2018-08-10T13:14:33.392Z,1017.2
2018-08-10T13:15:43.055Z,1017.3
2018-08-10T13:16:52.206Z,1017.29
2018-08-10T13:18:01.617Z,1017.26
2018-08-10T13:19:10.774Z,1017.33
2018-08-10T13:20:20.430Z,1017.25
2018-08-10T13:21:30.103Z,1017.25
2018-08-10T13:22:39.525Z,1017.25
2018-08-10T13:23:48.991Z,1017.22
2018-08-10T13:24:58.984Z,1017.21
2018-08-10T13:26:08.390Z,1017.26
2018-08-10T13:27:18.062Z,1017.23
2018-08-10T13:28:27.261Z,1017.29
2018-08-10T13:29:37.161Z,1017.25
2018-08-10T13:30:46.068Z,1017.28
2018-08-10T13:31:55.494Z,1017.19
2018-08-10T13:33:04.920Z,1017.22
2018-08-10T13:34:14.844Z,1017.22
2018-08-10T13:35:24.284Z,1017.27
2018-08-10T13:36:33.850Z,1017.23
2018-08-10T13:37:43.512Z,1017.27
2018-08-10T13:38:52.924Z,1017.28
2018-08-10T13:40:02.318Z,1017.26
2018-08-10T13:41:11.725Z,1017.2
2018-08-10T13:42:21.141Z,1017.2
2018-08-10T13:43:30.313Z,1017.26
2018-08-10T13:44:39.976Z,1017.23
2018-08-10T13:45:49.731Z,1017.17
2018-08-10T13:46:58.585Z,1017.16
2018-08-10T13:48:07.766Z,1017.14
2018-08-10T13:49:17.165Z,1017.13
2018-08-10T13:50:26.345Z,1017.22
2018-08-10T13:51:34.989Z,1017.2
2018-08-10T13:52:44.668Z,1017.18
2018-08-10T13:53:54.081Z,1017.14
2018-08-10T13:55:02.978Z,1017.15
2018-08-10T13:56:12.677Z,1017.12
2018-08-10T13:57:22.091Z,1017.07
2018-08-10T13:58:31.256Z,1017.02
2018-08-10T13:59:40.740Z,1017.13
2018-08-10T14:00:50.163Z,1017.14
2018-08-10T14:01:59.875Z,1017.09
2018-08-10T14:03:09.316Z,1017.11